Time;durP1;ratioP1;P1;durP2;ratioP2;P2;SDS_P1;SDS_P2;PMS_P1;PMS_P2;Temp;Humidity;BMP_temperature;BMP_pressure;BME280_temperature;BME280_humidity;BME280_pressure;Samples;Min_cycle;Max_cycle;Signal;HPM_P1;HPM_P2
2023/06/20 00:01:00;;;;;;;22.40;20.50;;;;;;;;;;5074097;28;20539;-58
2023/06/20 00:03:28;;;;;;;23.20;21.40;;;;;;;;;;5074349;28;20454;-58
2023/06/20 00:05:55;;;;;;;22.27;20.47;;;;;;;;;;5074238;28;20451;-58
2023/06/20 00:08:22;;;;;;;22.33;20.47;;;;;;;;;;5074142;28;20497;-58
2023/06/20 00:10:49;;;;;;;22.57;20.87;;;;;;;;;;5074064;28;20538;-58
2023/06/20 00:13:17;;;;;;;23.17;21.27;;;;;;;;;;5073777;28;20547;-58
2023/06/20 00:15:44;;;;;;;21.90;20.10;;;;;;;;;;5073762;28;20525;-58
2023/06/20 00:18:11;;;;;;;20.93;19.23;;;;;;;;;;5073988;28;20862;-59
2023/06/20 00:20:39;;;;;;;22.60;20.90;;;;;;;;;;5073896;28;20531;-58
2023/06/20 00:23:07;;;;;;;22.30;20.60;;;;;;;;;;5073923;28;20456;-58
2023/06/20 00:25:34;;;;;;;23.20;21.03;;;;;;;;;;5073740;28;20443;-57
2023/06/20 00:28:02;;;;;;;23.37;21.57;;;;;;;;;;5073483;28;20858;-58
2023/06/20 00:30:29;;;;;;;22.40;20.50;;;;;;;;;;5073771;28;20505;-58
2023/06/20 00:32:58;;;;;;;22.90;21.00;;;;;;;;;;5073691;28;20646;-58
2023/06/20 00:35:25;;;;;;;22.00;20.23;;;;;;;;;;5073493;28;20480;-58
2023/06/20 00:37:54;;;;;;;22.03;20.13;;;;;;;;;;5073562;28;20448;-58
2023/06/20 00:40:21;;;;;;;22.23;20.23;;;;;;;;;;5073414;28;20963;-58
2023/06/20 00:42:48;;;;;;;23.73;21.83;;;;;;;;;;5073342;28;20502;-58
2023/06/20 00:45:28;;;;;;;23.30;21.27;;;;;;;;;;5073550;28;20538;-58
2023/06/20 00:47:55;;;;;;;22.73;20.93;;;;;;;;;;5073373;28;20451;-58
2023/06/20 00:50:27;;;;;;;22.17;20.27;;;;;;;;;;5073343;28;20444;-58
2023/06/20 00:52:58;;;;;;;22.83;20.93;;;;;;;;;;5073188;28;20483;-58
2023/06/20 00:55:25;;;;;;;23.63;21.33;;;;;;;;;;5073158;28;20804;-58
2023/06/20 00:57:52;;;;;;;23.30;21.50;;;;;;;;;;5073253;28;20454;-58
2023/06/20 01:00:19;;;;;;;23.63;21.40;;;;;;;;;;5073235;28;20440;-58
2023/06/20 01:02:46;;;;;;;21.37;19.77;;;;;;;;;;5073111;28;21231;-58
2023/06/20 01:05:13;;;;;;;22.60;20.70;;;;;;;;;;5072384;28;20448;-58
2023/06/20 01:07:44;;;;;;;24.13;22.13;;;;;;;;;;5072774;28;20444;-58
2023/06/20 01:10:19;;;;;;;23.30;21.40;;;;;;;;;;5073192;28;20854;-58
2023/06/20 01:12:49;;;;;;;24.10;22.20;;;;;;;;;;5073246;28;20447;-58
2023/06/20 01:15:19;;;;;;;25.07;22.97;;;;;;;;;;5073039;28;20472;-58
2023/06/20 01:17:47;;;;;;;23.60;21.60;;;;;;;;;;5072980;28;20461;-58
2023/06/20 01:20:16;;;;;;;24.23;22.20;;;;;;;;;;5072866;28;20548;-57
2023/06/20 01:22:48;;;;;;;25.07;22.97;;;;;;;;;;5072876;28;21009;-57
2023/06/20 01:25:23;;;;;;;25.00;22.90;;;;;;;;;;5073021;28;20538;-57
2023/06/20 01:27:52;;;;;;;25.80;23.60;;;;;;;;;;5072878;28;20496;-57
2023/06/20 01:30:22;;;;;;;24.43;22.03;;;;;;;;;;5072876;28;20482;-58
2023/06/20 01:32:50;;;;;;;22.77;21.07;;;;;;;;;;5072746;28;20451;-58
2023/06/20 01:35:19;;;;;;;24.60;22.50;;;;;;;;;;5072956;28;20514;-58
2023/06/20 01:37:51;;;;;;;24.50;22.60;;;;;;;;;;5072827;28;20443;-58
2023/06/20 01:40:19;;;;;;;23.70;21.57;;;;;;;;;;5072858;28;20529;-58
2023/06/20 01:42:47;;;;;;;25.47;23.37;;;;;;;;;;5072754;28;20495;-58
2023/06/20 01:45:15;;;;;;;22.60;20.80;;;;;;;;;;5072665;28;20865;-58
2023/06/20 01:47:42;;;;;;;22.80;20.83;;;;;;;;;;5072748;28;20452;-58
2023/06/20 01:50:10;;;;;;;23.13;21.17;;;;;;;;;;5072734;28;20539;-58
2023/06/20 01:52:38;;;;;;;23.77;21.87;;;;;;;;;;5072718;28;20770;-58
2023/06/20 01:55:08;;;;;;;23.60;21.70;;;;;;;;;;5072398;28;20566;-59
2023/06/20 01:57:35;;;;;;;25.10;23.10;;;;;;;;;;5072470;28;20878;-58
2023/06/20 02:00:10;;;;;;;23.80;21.90;;;;;;;;;;5072525;28;20957;-58
2023/06/20 02:02:38;;;;;;;22.87;20.67;;;;;;;;;;5072714;28;20448;-58
2023/06/20 02:05:06;;;;;;;24.17;22.00;;;;;;;;;;5072524;28;20805;-58
2023/06/20 02:07:34;;;;;;;24.77;22.87;;;;;;;;;;5072723;28;20461;-58
2023/06/20 02:10:01;;;;;;;23.47;21.43;;;;;;;;;;5072337;28;20453;-58
2023/06/20 02:12:30;;;;;;;24.07;22.17;;;;;;;;;;5072637;28;20448;-58
2023/06/20 02:14:58;;;;;;;25.80;23.70;;;;;;;;;;5072421;28;20448;-58
2023/06/20 02:17:25;;;;;;;21.73;19.93;;;;;;;;;;5074036;28;20450;-58
2023/06/20 02:19:52;;;;;;;24.47;22.47;;;;;;;;;;5076239;28;20443;-58
2023/06/20 02:22:21;;;;;;;24.73;22.73;;;;;;;;;;5076095;28;20902;-58
2023/06/20 02:24:49;;;;;;;25.30;23.17;;;;;;;;;;5075926;28;20439;-58
2023/06/20 02:27:17;;;;;;;25.67;23.57;;;;;;;;;;5076140;28;20543;-58
2023/06/20 02:29:46;;;;;;;24.33;22.23;;;;;;;;;;5076146;28;20452;-58
2023/06/20 02:32:14;;;;;;;25.33;23.23;;;;;;;;;;5076001;28;21012;-58
2023/06/20 02:34:43;;;;;;;24.83;22.83;;;;;;;;;;5075962;28;20452;-58
2023/06/20 02:37:10;;;;;;;27.70;25.37;;;;;;;;;;5075619;28;20518;-58
2023/06/20 02:39:37;;;;;;;24.70;22.80;;;;;;;;;;5076061;28;20454;-57
2023/06/20 02:42:04;;;;;;;27.07;25.00;;;;;;;;;;5075879;28;20865;-58
2023/06/20 02:44:31;;;;;;;26.07;23.83;;;;;;;;;;5075843;28;20539;-58
2023/06/20 02:47:03;;;;;;;28.27;25.80;;;;;;;;;;5075667;28;20884;-58
2023/06/20 02:49:34;;;;;;;24.97;22.77;;;;;;;;;;5075693;28;20447;-58
2023/06/20 02:52:04;;;;;;;24.53;22.30;;;;;;;;;;5075738;28;20439;-58
2023/06/20 02:54:36;;;;;;;26.30;23.90;;;;;;;;;;5075673;28;20440;-59
2023/06/20 02:57:05;;;;;;;25.73;23.53;;;;;;;;;;5075336;28;20518;-58
2023/06/20 02:59:33;;;;;;;25.80;23.73;;;;;;;;;;5075494;28;20802;-58
2023/06/20 03:02:03;;;;;;;24.83;22.80;;;;;;;;;;5075334;28;20546;-58
2023/06/20 03:04:32;;;;;;;26.43;24.03;;;;;;;;;;5075559;28;20547;-58
2023/06/20 03:06:59;;;;;;;24.40;22.50;;;;;;;;;;5075291;28;20512;-59
2023/06/20 03:09:26;;;;;;;26.53;24.07;;;;;;;;;;5075463;28;20466;-59
2023/06/20 03:11:53;;;;;;;27.57;24.97;;;;;;;;;;5075076;28;20950;-59
2023/06/20 03:14:20;;;;;;;25.43;23.33;;;;;;;;;;5075034;28;21004;-58
2023/06/20 03:16:47;;;;;;;27.07;24.60;;;;;;;;;;5074907;28;20484;-58
2023/06/20 03:19:16;;;;;;;26.20;23.80;;;;;;;;;;5075267;28;20615;-58
2023/06/20 03:21:43;;;;;;;26.07;23.77;;;;;;;;;;5075138;28;20474;-59
2023/06/20 03:24:09;;;;;;;25.93;23.73;;;;;;;;;;5075114;28;20452;-58
2023/06/20 03:26:37;;;;;;;25.23;23.00;;;;;;;;;;5074926;28;20451;-59
2023/06/20 03:29:04;;;;;;;26.43;24.23;;;;;;;;;;5073915;28;20451;-58
2023/06/20 03:31:31;;;;;;;26.23;24.13;;;;;;;;;;5074659;28;20451;-58
2023/06/20 03:33:57;;;;;;;26.80;24.50;;;;;;;;;;5074897;28;20899;-59
2023/06/20 03:36:26;;;;;;;27.43;25.10;;;;;;;;;;5074728;28;20515;-58
2023/06/20 03:38:53;;;;;;;28.57;26.07;;;;;;;;;;5074708;28;20501;-59
2023/06/20 03:41:19;;;;;;;24.83;22.63;;;;;;;;;;5074687;28;20517;-58
2023/06/20 03:43:46;;;;;;;26.40;24.00;;;;;;;;;;5074520;28;20492;-59
2023/06/20 03:46:13;;;;;;;28.10;25.23;;;;;;;;;;5074552;28;21037;-58
2023/06/20 03:48:40;;;;;;;27.30;24.83;;;;;;;;;;5074711;28;20534;-59
2023/06/20 03:51:07;;;;;;;28.07;25.57;;;;;;;;;;5074547;28;20452;-58
2023/06/20 03:53:35;;;;;;;27.77;25.13;;;;;;;;;;5074336;28;20459;-58
2023/06/20 03:56:03;;;;;;;27.40;25.10;;;;;;;;;;5073929;28;21021;-59
2023/06/20 03:58:30;;;;;;;28.50;26.10;;;;;;;;;;5074147;28;20474;-58
2023/06/20 04:00:57;;;;;;;30.10;27.40;;;;;;;;;;5074459;28;20545;-58
2023/06/20 04:03:24;;;;;;;29.83;27.20;;;;;;;;;;5074310;28;20456;-58
2023/06/20 04:05:51;;;;;;;28.17;25.87;;;;;;;;;;5074117;28;20821;-58
2023/06/20 04:08:18;;;;;;;28.20;26.00;;;;;;;;;;5074081;28;20458;-58
2023/06/20 04:10:46;;;;;;;26.93;24.67;;;;;;;;;;5074014;28;20452;-58
2023/06/20 04:13:13;;;;;;;28.23;25.77;;;;;;;;;;5073979;28;20470;-58
2023/06/20 04:15:40;;;;;;;26.93;24.70;;;;;;;;;;5074020;28;20539;-60
2023/06/20 04:18:07;;;;;;;27.27;24.63;;;;;;;;;;5073872;28;20447;-58
2023/06/20 04:20:33;;;;;;;27.30;24.90;;;;;;;;;;5073869;28;20451;-58
2023/06/20 04:23:01;;;;;;;25.23;23.03;;;;;;;;;;5073932;28;20928;-58
2023/06/20 04:25:28;;;;;;;26.60;24.27;;;;;;;;;;5073632;28;20452;-58
2023/06/20 04:27:57;;;;;;;27.90;25.50;;;;;;;;;;5073845;28;20491;-58
2023/06/20 04:30:24;;;;;;;25.97;23.47;;;;;;;;;;5073800;28;20538;-58
2023/06/20 04:32:53;;;;;;;25.80;23.63;;;;;;;;;;5073553;28;21013;-59
2023/06/20 04:35:20;;;;;;;26.93;24.57;;;;;;;;;;5073546;28;20463;-58
2023/06/20 04:37:51;;;;;;;25.60;23.07;;;;;;;;;;5073378;28;20571;-58
2023/06/20 04:40:18;;;;;;;25.73;23.23;;;;;;;;;;5073266;28;21566;-59
2023/06/20 04:42:45;;;;;;;26.00;23.70;;;;;;;;;;5073727;28;20451;-59
2023/06/20 04:45:14;;;;;;;25.77;23.33;;;;;;;;;;5073429;28;20452;-58
2023/06/20 04:47:42;;;;;;;27.23;24.93;;;;;;;;;;5073177;28;20456;-58
2023/06/20 04:50:09;;;;;;;26.83;24.43;;;;;;;;;;5073303;28;20854;-58
2023/06/20 04:52:36;;;;;;;26.40;23.90;;;;;;;;;;5073624;28;20448;-59
2023/06/20 04:55:04;;;;;;;26.30;24.07;;;;;;;;;;5073306;28;20469;-58
2023/06/20 04:57:31;;;;;;;24.67;22.73;;;;;;;;;;5073181;28;20843;-59
2023/06/20 04:59:58;;;;;;;25.50;23.40;;;;;;;;;;5073511;28;20799;-58
2023/06/20 05:02:27;;;;;;;24.73;22.50;;;;;;;;;;5073234;28;20539;-58
2023/06/20 05:04:54;;;;;;;26.47;24.27;;;;;;;;;;5073077;28;20490;-59
2023/06/20 05:07:21;;;;;;;25.33;23.13;;;;;;;;;;5072957;28;20538;-58
2023/06/20 05:09:49;;;;;;;25.80;23.60;;;;;;;;;;5073190;28;20447;-58
2023/06/20 05:12:15;;;;;;;26.70;24.47;;;;;;;;;;5073224;28;20819;-58
2023/06/20 05:14:43;;;;;;;27.47;25.27;;;;;;;;;;5073091;28;20549;-58
2023/06/20 05:17:10;;;;;;;29.10;26.60;;;;;;;;;;5072813;28;20488;-58
2023/06/20 05:19:38;;;;;;;28.10;25.70;;;;;;;;;;5072882;28;20455;-58
2023/06/20 05:22:05;;;;;;;29.10;26.47;;;;;;;;;;5072996;28;20486;-59
2023/06/20 05:24:32;;;;;;;26.50;24.30;;;;;;;;;;5073011;28;20509;-58
2023/06/20 05:26:59;;;;;;;28.10;25.53;;;;;;;;;;5072883;28;20478;-58
2023/06/20 05:29:26;;;;;;;26.07;23.77;;;;;;;;;;5072637;28;20448;-57
2023/06/20 05:31:53;;;;;;;27.23;24.60;;;;;;;;;;5072735;28;20487;-57
2023/06/20 05:34:20;;;;;;;26.97;24.67;;;;;;;;;;5072611;28;20953;-58
2023/06/20 05:36:48;;;;;;;27.10;24.73;;;;;;;;;;5072705;28;20537;-58
2023/06/20 05:39:15;;;;;;;28.37;25.90;;;;;;;;;;5072819;28;20843;-58
2023/06/20 05:41:42;;;;;;;27.70;25.30;;;;;;;;;;5072768;28;20454;-58
2023/06/20 05:44:09;;;;;;;27.97;25.47;;;;;;;;;;5072537;28;20448;-58
2023/06/20 05:46:36;;;;;;;28.00;25.70;;;;;;;;;;5072509;28;20452;-59
2023/06/20 05:49:03;;;;;;;30.27;27.13;;;;;;;;;;5072475;28;20444;-58
2023/06/20 05:51:30;;;;;;;27.03;24.70;;;;;;;;;;5072782;28;20447;-58
2023/06/20 05:53:58;;;;;;;27.70;25.40;;;;;;;;;;5076779;28;20454;-58
2023/06/20 05:56:25;;;;;;;27.90;25.40;;;;;;;;;;5076277;28;20590;-58
2023/06/20 05:58:52;;;;;;;27.03;24.73;;;;;;;;;;5076494;28;21010;-58
2023/06/20 06:01:19;;;;;;;26.40;24.20;;;;;;;;;;5076512;28;20458;-58
2023/06/20 06:03:47;;;;;;;27.20;24.87;;;;;;;;;;5076511;28;20961;-58
2023/06/20 06:06:14;;;;;;;28.63;26.07;;;;;;;;;;5076276;28;20943;-58
2023/06/20 06:08:41;;;;;;;26.97;24.77;;;;;;;;;;5076433;28;20546;-58
2023/06/20 06:11:09;;;;;;;26.70;24.40;;;;;;;;;;5076371;28;20811;-58
2023/06/20 06:13:38;;;;;;;28.30;25.90;;;;;;;;;;5076281;28;20497;-58
2023/06/20 06:16:05;;;;;;;27.13;24.90;;;;;;;;;;5075846;28;21001;-58
2023/06/20 06:18:32;;;;;;;27.23;25.03;;;;;;;;;;5076276;28;20448;-58
2023/06/20 06:20:59;;;;;;;26.33;23.93;;;;;;;;;;5076284;28;20837;-58
2023/06/20 06:23:27;;;;;;;27.87;25.63;;;;;;;;;;5076116;28;20451;-58
2023/06/20 06:25:53;;;;;;;27.70;25.30;;;;;;;;;;5076036;28;20518;-58
2023/06/20 06:28:23;;;;;;;29.17;26.57;;;;;;;;;;5075940;28;20884;-58
2023/06/20 06:30:50;;;;;;;24.67;22.73;;;;;;;;;;5075985;28;20943;-58
2023/06/20 06:33:19;;;;;;;26.73;24.60;;;;;;;;;;5076028;28;20454;-58
2023/06/20 06:35:46;;;;;;;26.43;24.43;;;;;;;;;;5075849;28;20538;-58
2023/06/20 06:38:13;;;;;;;27.40;25.10;;;;;;;;;;5075678;28;20523;-58
2023/06/20 06:40:40;;;;;;;28.90;26.43;;;;;;;;;;5075713;28;20448;-58
2023/06/20 06:43:07;;;;;;;28.40;26.10;;;;;;;;;;5075643;28;20454;-57
2023/06/20 06:45:37;;;;;;;28.90;26.63;;;;;;;;;;5075652;28;20451;-58
2023/06/20 06:48:04;;;;;;;27.67;25.17;;;;;;;;;;5075700;28;20493;-58
2023/06/20 06:50:31;;;;;;;29.30;26.97;;;;;;;;;;5075526;28;20448;-57
2023/06/20 06:52:58;;;;;;;28.30;25.83;;;;;;;;;;5075618;28;20856;-58
2023/06/20 06:55:25;;;;;;;26.87;24.70;;;;;;;;;;5075279;28;21044;-58
2023/06/20 06:57:52;;;;;;;27.37;25.07;;;;;;;;;;5075441;28;20570;-57
2023/06/20 07:00:19;;;;;;;27.67;25.47;;;;;;;;;;5075575;28;20452;-59
2023/06/20 07:02:47;;;;;;;27.37;25.17;;;;;;;;;;5075186;28;20959;-57
2023/06/20 07:05:14;;;;;;;26.10;23.73;;;;;;;;;;5075238;28;20444;-57
2023/06/20 07:07:41;;;;;;;25.60;23.70;;;;;;;;;;5075268;28;20454;-59
2023/06/20 07:10:09;;;;;;;26.40;24.37;;;;;;;;;;5075104;28;21000;-59
2023/06/20 07:12:36;;;;;;;27.87;25.57;;;;;;;;;;5075434;28;20871;-59
2023/06/20 07:15:03;;;;;;;28.20;25.90;;;;;;;;;;5075162;28;20452;-57
2023/06/20 07:17:32;;;;;;;28.00;25.70;;;;;;;;;;5074891;28;20479;-57
2023/06/20 07:20:00;;;;;;;28.90;26.60;;;;;;;;;;5074923;28;20451;-59
2023/06/20 07:22:27;;;;;;;26.10;24.10;;;;;;;;;;5074998;28;20543;-58
2023/06/20 07:24:54;;;;;;;26.43;24.23;;;;;;;;;;5088774;28;20439;-61
2023/06/20 07:27:21;;;;;;;28.30;26.10;;;;;;;;;;5095129;28;20552;-62
2023/06/20 07:29:48;;;;;;;28.60;25.90;;;;;;;;;;5095045;28;20462;-63
2023/06/20 07:32:16;;;;;;;26.00;23.97;;;;;;;;;;5095087;28;20447;-63
2023/06/20 07:34:43;;;;;;;26.83;24.83;;;;;;;;;;5094892;28;20453;-60
2023/06/20 07:37:11;;;;;;;27.97;25.77;;;;;;;;;;5094700;28;20879;-61
2023/06/20 07:39:41;;;;;;;28.17;25.50;;;;;;;;;;5095051;28;20871;-62
2023/06/20 07:42:08;;;;;;;28.63;26.30;;;;;;;;;;5094917;28;20451;-57
2023/06/20 07:44:35;;;;;;;29.90;27.40;;;;;;;;;;5094887;28;20449;-54
2023/06/20 07:47:02;;;;;;;30.57;28.07;;;;;;;;;;5094589;28;20455;-59
2023/06/20 07:49:29;;;;;;;28.73;26.43;;;;;;;;;;5094639;28;20613;-56
2023/06/20 07:51:56;;;;;;;27.80;25.53;;;;;;;;;;5094503;28;20476;-60
2023/06/20 07:54:25;;;;;;;27.67;25.37;;;;;;;;;;5094473;28;20451;-59
2023/06/20 07:56:52;;;;;;;28.20;25.73;;;;;;;;;;5094327;28;20458;-59
2023/06/20 07:59:19;;;;;;;27.87;25.77;;;;;;;;;;5094557;28;20751;-61
2023/06/20 08:01:46;;;;;;;28.20;25.90;;;;;;;;;;5094436;28;20447;-78
2023/06/20 08:04:13;;;;;;;27.23;25.20;;;;;;;;;;5093209;28;20954;-63
2023/06/20 08:06:40;;;;;;;27.90;25.70;;;;;;;;;;5094480;28;20450;-62
2023/06/20 08:09:07;;;;;;;29.30;26.93;;;;;;;;;;5094224;28;20466;-61
2023/06/20 08:11:35;;;;;;;28.17;25.87;;;;;;;;;;5094295;28;20451;-60
2023/06/20 08:14:02;;;;;;;28.87;26.57;;;;;;;;;;5094092;28;20451;-61
2023/06/20 08:16:29;;;;;;;29.67;27.20;;;;;;;;;;5093690;28;20447;-65
2023/06/20 08:18:56;;;;;;;29.17;26.97;;;;;;;;;;5093859;28;20845;-61
2023/06/20 08:21:22;;;;;;;27.17;25.07;;;;;;;;;;5094022;28;20455;-63
2023/06/20 08:23:49;;;;;;;28.40;25.70;;;;;;;;;;5093731;28;21009;-64
2023/06/20 08:26:16;;;;;;;28.37;26.07;;;;;;;;;;5093663;28;20447;-61
2023/06/20 08:28:44;;;;;;;25.83;23.50;;;;;;;;;;5093859;28;20459;-60
2023/06/20 08:31:11;;;;;;;26.10;24.00;;;;;;;;;;5093700;28;20454;-60
2023/06/20 08:33:38;;;;;;;25.83;23.73;;;;;;;;;;5093632;28;20462;-61
2023/06/20 08:36:05;;;;;;;25.40;23.43;;;;;;;;;;5093838;28;20802;-61
2023/06/20 08:38:32;;;;;;;27.17;24.67;;;;;;;;;;5093343;28;21057;-61
2023/06/20 08:40:59;;;;;;;26.87;24.50;;;;;;;;;;5093737;28;20482;-62
2023/06/20 08:43:28;;;;;;;26.13;24.13;;;;;;;;;;5093634;28;20800;-60
2023/06/20 08:45:57;;;;;;;25.03;23.00;;;;;;;;;;5093425;28;20451;-60
2023/06/20 08:48:24;;;;;;;24.37;22.37;;;;;;;;;;5093533;28;20483;-60
2023/06/20 08:50:51;;;;;;;23.03;21.23;;;;;;;;;;5093614;28;20456;-59
2023/06/20 08:53:19;;;;;;;23.63;21.77;;;;;;;;;;5093568;28;20510;-58
2023/06/20 08:55:46;;;;;;;22.03;20.30;;;;;;;;;;5092975;28;20470;-58
2023/06/20 08:58:13;;;;;;;22.80;21.00;;;;;;;;;;5093152;28;20497;-59
2023/06/20 09:00:40;;;;;;;25.00;23.10;;;;;;;;;;5093283;28;20449;-60
2023/06/20 09:03:08;;;;;;;23.40;21.50;;;;;;;;;;5093453;28;20459;-62
2023/06/20 09:05:42;;;;;;;24.43;22.53;;;;;;;;;;5093402;28;20451;-59
2023/06/20 09:08:12;;;;;;;27.63;25.33;;;;;;;;;;5093357;28;20447;-59
2023/06/20 09:10:39;;;;;;;27.47;25.30;;;;;;;;;;5093249;28;20443;-60
2023/06/20 09:13:08;;;;;;;26.40;24.40;;;;;;;;;;5093095;28;20446;-60
2023/06/20 09:15:36;;;;;;;24.13;22.23;;;;;;;;;;5092861;28;20447;-59
2023/06/20 09:18:03;;;;;;;25.63;23.70;;;;;;;;;;5092994;28;20520;-59
2023/06/20 09:20:32;;;;;;;26.07;24.17;;;;;;;;;;5092995;28;20860;-59
2023/06/20 09:22:59;;;;;;;27.03;25.03;;;;;;;;;;5092848;28;20681;-58
2023/06/20 09:25:26;;;;;;;30.17;27.13;;;;;;;;;;5093002;28;20886;-59
2023/06/20 09:27:55;;;;;;;32.60;29.90;;;;;;;;;;5092271;28;20856;-63
2023/06/20 09:30:22;;;;;;;35.00;32.10;;;;;;;;;;5092983;28;20454;-61
2023/06/20 09:32:49;;;;;;;30.10;27.70;;;;;;;;;;5093118;28;20446;-60
2023/06/20 09:35:16;;;;;;;32.03;29.43;;;;;;;;;;5092523;28;20534;-61
2023/06/20 09:37:45;;;;;;;34.10;31.17;;;;;;;;;;5092602;28;20514;-61
2023/06/20 09:40:13;;;;;;;33.77;31.00;;;;;;;;;;5092638;28;20501;-63
2023/06/20 09:42:40;;;;;;;33.77;30.97;;;;;;;;;;5093072;28;20451;-62
2023/06/20 09:45:08;;;;;;;34.77;31.70;;;;;;;;;;5092939;28;20557;-62
2023/06/20 09:47:36;;;;;;;33.37;30.67;;;;;;;;;;5092730;28;20451;-61
2023/06/20 09:50:05;;;;;;;36.60;33.10;;;;;;;;;;5092725;28;20447;-63
2023/06/20 09:52:33;;;;;;;40.03;36.03;;;;;;;;;;5092586;28;20451;-61
2023/06/20 09:55:02;;;;;;;38.80;35.40;;;;;;;;;;5092092;28;20535;-62
2023/06/20 09:57:34;;;;;;;37.47;34.37;;;;;;;;;;5092636;28;20454;-61
2023/06/20 10:00:03;;;;;;;38.60;35.10;;;;;;;;;;5092613;28;20443;-61
2023/06/20 10:02:30;;;;;;;37.83;34.53;;;;;;;;;;5092637;28;20443;-59
2023/06/20 10:04:57;;;;;;;38.70;35.40;;;;;;;;;;5092239;28;20530;-59
2023/06/20 10:07:24;;;;;;;38.60;35.10;;;;;;;;;;5092320;28;20450;-60
2023/06/20 10:09:54;;;;;;;37.57;33.90;;;;;;;;;;5077410;28;20539;-60
2023/06/20 10:12:22;;;;;;;39.47;35.87;;;;;;;;;;5072688;28;20444;-60
2023/06/20 10:14:49;;;;;;;39.53;35.63;;;;;;;;;;5072378;28;20452;-60
2023/06/20 10:17:16;;;;;;;39.03;35.33;;;;;;;;;;5072182;28;20443;-60
2023/06/20 10:19:48;;;;;;;38.90;35.30;;;;;;;;;;5072218;28;20493;-59
2023/06/20 10:22:15;;;;;;;42.43;37.40;;;;;;;;;;5072054;28;20520;-60
2023/06/20 10:24:41;;;;;;;39.83;35.93;;;;;;;;;;5072564;28;20452;-62
2023/06/20 10:27:08;;;;;;;38.23;34.73;;;;;;;;;;5072065;28;20815;-60
2023/06/20 10:29:41;;;;;;;40.00;36.30;;;;;;;;;;5081925;28;20447;-61
2023/06/20 10:32:09;;;;;;;37.67;34.10;;;;;;;;;;5092283;28;20545;-63
2023/06/20 10:34:36;;;;;;;37.17;33.90;;;;;;;;;;5092484;28;20451;-63
2023/06/20 10:37:17;;;;;;;38.80;35.30;;;;;;;;;;5092477;28;20477;-61
2023/06/20 10:39:53;;;;;;;33.97;30.67;;;;;;;;;;5095935;28;20486;-63
2023/06/20 10:42:31;;;;;;;33.00;30.10;;;;;;;;;;5096047;28;20488;-63
2023/06/20 10:45:13;;;;;;;38.20;34.47;;;;;;;;;;5096001;28;20469;-62
2023/06/20 10:47:42;;;;;;;33.80;30.73;;;;;;;;;;5095698;28;20439;-61
2023/06/20 10:50:10;;;;;;;34.47;31.37;;;;;;;;;;5095932;28;20447;-62
2023/06/20 10:52:38;;;;;;;34.27;31.10;;;;;;;;;;5095477;28;20454;-65
2023/06/20 10:55:08;;;;;;;36.03;32.63;;;;;;;;;;5095435;28;20496;-59
2023/06/20 10:57:35;;;;;;;35.10;31.60;;;;;;;;;;5095521;28;20768;-60
2023/06/20 11:00:07;;;;;;;32.70;29.90;;;;;;;;;;5095750;28;20767;-59
2023/06/20 11:02:35;;;;;;;33.77;30.50;;;;;;;;;;5095548;28;20965;-60
2023/06/20 11:05:04;;;;;;;31.20;28.43;;;;;;;;;;5095649;28;20485;-61
2023/06/20 11:07:31;;;;;;;37.40;34.20;;;;;;;;;;5095347;28;20961;-60
2023/06/20 11:09:58;;;;;;;35.23;31.97;;;;;;;;;;5095661;28;20455;-62
2023/06/20 11:12:25;;;;;;;35.43;32.23;;;;;;;;;;5095545;28;20500;-61
2023/06/20 11:14:52;;;;;;;37.20;33.70;;;;;;;;;;5095577;28;20446;-61
2023/06/20 11:17:19;;;;;;;38.20;34.80;;;;;;;;;;5095340;28;20453;-61
2023/06/20 11:19:46;;;;;;;38.27;34.60;;;;;;;;;;5095142;28;20500;-61
2023/06/20 11:22:14;;;;;;;37.17;33.33;;;;;;;;;;5094844;28;20537;-61
2023/06/20 11:24:42;;;;;;;40.70;36.80;;;;;;;;;;5095170;28;20459;-61
2023/06/20 11:27:13;;;;;;;38.23;34.47;;;;;;;;;;5095056;28;20484;-61
2023/06/20 11:29:40;;;;;;;37.93;34.47;;;;;;;;;;5095150;28;20455;-62
2023/06/20 11:32:10;;;;;;;39.10;35.70;;;;;;;;;;5095141;28;20447;-62
2023/06/20 11:34:53;;;;;;;38.67;35.27;;;;;;;;;;5095031;28;20497;-61
2023/06/20 11:37:21;;;;;;;36.63;33.23;;;;;;;;;;5095088;28;20462;-61
2023/06/20 11:39:48;;;;;;;38.43;35.20;;;;;;;;;;5094735;28;20566;-61
2023/06/20 11:42:15;;;;;;;39.80;36.30;;;;;;;;;;5094952;28;20802;-62
2023/06/20 11:44:42;;;;;;;38.10;34.77;;;;;;;;;;5094805;28;20490;-61
2023/06/20 11:47:09;;;;;;;39.30;35.80;;;;;;;;;;5094596;28;20542;-61
2023/06/20 11:49:36;;;;;;;38.40;34.43;;;;;;;;;;5093946;28;20443;-59
2023/06/20 11:52:05;;;;;;;36.93;33.93;;;;;;;;;;5094415;28;20960;-59
2023/06/20 11:57:27;;;;;;;40.23;36.47;;;;;;;;;;5131312;27;20548;-59
2023/06/20 11:59:54;;;;;;;37.80;34.50;;;;;;;;;;5110509;28;20450;-59
2023/06/20 12:02:21;;;;;;;37.40;33.53;;;;;;;;;;5110779;28;20499;-60
2023/06/20 12:04:56;;;;;;;35.77;32.60;;;;;;;;;;5110692;28;20481;-59
2023/06/20 12:07:25;;;;;;;38.43;35.03;;;;;;;;;;5110552;28;20461;-60
2023/06/20 12:09:52;;;;;;;36.97;33.43;;;;;;;;;;5110508;28;20527;-60
2023/06/20 12:12:19;;;;;;;39.90;36.20;;;;;;;;;;5109889;28;20453;-60
2023/06/20 12:14:52;;;;;;;37.07;33.83;;;;;;;;;;5110567;28;20473;-59
2023/06/20 12:17:19;;;;;;;35.67;32.60;;;;;;;;;;5110251;28;20482;-61
2023/06/20 12:19:52;;;;;;;36.83;33.73;;;;;;;;;;5110323;28;20541;-61
2023/06/20 12:22:20;;;;;;;37.63;34.23;;;;;;;;;;5110091;28;20496;-59
2023/06/20 12:24:46;;;;;;;36.73;33.60;;;;;;;;;;5109983;28;20442;-61
2023/06/20 12:27:13;;;;;;;37.63;34.37;;;;;;;;;;5110072;28;20515;-61
2023/06/20 12:29:40;;;;;;;36.10;33.10;;;;;;;;;;5109959;28;20533;-61
2023/06/20 12:32:09;;;;;;;36.20;33.00;;;;;;;;;;5110145;28;20452;-61
2023/06/20 12:34:36;;;;;;;37.40;34.17;;;;;;;;;;5110031;28;20960;-61
2023/06/20 12:37:03;;;;;;;38.10;34.70;;;;;;;;;;5109767;28;20568;-61
2023/06/20 12:39:30;;;;;;;34.93;31.90;;;;;;;;;;5109850;28;20449;-61
2023/06/20 12:41:57;;;;;;;37.37;33.87;;;;;;;;;;5109821;28;21021;-61
2023/06/20 12:44:24;;;;;;;37.10;33.97;;;;;;;;;;5109925;28;20495;-61
2023/06/20 12:46:51;;;;;;;36.10;33.00;;;;;;;;;;5109814;28;20533;-61
2023/06/20 12:49:20;;;;;;;39.43;36.00;;;;;;;;;;5109848;28;20809;-61
2023/06/20 12:51:47;;;;;;;39.37;35.87;;;;;;;;;;5109429;28;20454;-61
2023/06/20 12:54:14;;;;;;;37.53;34.23;;;;;;;;;;5109515;28;20454;-61
2023/06/20 12:56:41;;;;;;;40.33;36.73;;;;;;;;;;5109410;28;20511;-61
2023/06/20 12:59:08;;;;;;;39.03;35.53;;;;;;;;;;5109485;28;20446;-61
2023/06/20 13:01:35;;;;;;;36.00;32.70;;;;;;;;;;5109444;28;20446;-61
2023/06/20 13:04:03;;;;;;;38.83;35.37;;;;;;;;;;5109430;28;20819;-61
2023/06/20 13:06:31;;;;;;;36.13;33.03;;;;;;;;;;5108974;28;20438;-61
2023/06/20 13:08:58;;;;;;;38.73;35.40;;;;;;;;;;5095437;28;20888;-61
2023/06/20 13:11:25;;;;;;;38.50;34.80;;;;;;;;;;5095768;28;20453;-61
2023/06/20 13:13:52;;;;;;;36.07;32.70;;;;;;;;;;5095694;28;20542;-60
2023/06/20 13:16:19;;;;;;;36.07;32.70;;;;;;;;;;5095577;28;20799;-61
2023/06/20 13:18:46;;;;;;;36.00;32.80;;;;;;;;;;5095531;28;20443;-61
2023/06/20 13:21:13;;;;;;;36.37;33.27;;;;;;;;;;5095466;28;20482;-61
2023/06/20 13:23:41;;;;;;;36.17;32.97;;;;;;;;;;5095483;28;21056;-61
2023/06/20 13:26:09;;;;;;;36.07;33.03;;;;;;;;;;5095414;28;20779;-60
2023/06/20 13:28:36;;;;;;;34.17;31.20;;;;;;;;;;5095346;28;20526;-61
2023/06/20 13:31:03;;;;;;;34.63;31.70;;;;;;;;;;5095384;28;20788;-61
2023/06/20 13:33:29;;;;;;;33.63;30.60;;;;;;;;;;5095171;28;20447;-61
2023/06/20 13:35:56;;;;;;;34.57;31.47;;;;;;;;;;5095323;28;20497;-61
2023/06/20 13:38:24;;;;;;;38.67;35.23;;;;;;;;;;5095420;28;20451;-61
2023/06/20 13:40:52;;;;;;;34.23;31.33;;;;;;;;;;5095110;28;20948;-62
2023/06/20 13:43:19;;;;;;;37.20;33.70;;;;;;;;;;5095259;28;20447;-62
2023/06/20 13:45:46;;;;;;;35.70;32.50;;;;;;;;;;5095077;28;20818;-62
2023/06/20 13:48:13;;;;;;;33.73;30.83;;;;;;;;;;5095061;28;20865;-61
2023/06/20 13:50:40;;;;;;;34.00;31.23;;;;;;;;;;5094928;28;20540;-62
2023/06/20 13:53:07;;;;;;;35.20;32.00;;;;;;;;;;5095140;28;20492;-62
2023/06/20 13:55:34;;;;;;;32.33;29.47;;;;;;;;;;5095005;28;20478;-62
2023/06/20 13:58:02;;;;;;;30.60;28.07;;;;;;;;;;5094794;28;20956;-62
2023/06/20 14:00:29;;;;;;;26.03;23.83;;;;;;;;;;5094858;28;20485;-62
2023/06/20 14:02:56;;;;;;;24.43;22.43;;;;;;;;;;5094704;28;20486;-62
2023/06/20 14:05:23;;;;;;;25.93;23.83;;;;;;;;;;5094916;28;20877;-62
2023/06/20 14:07:50;;;;;;;24.93;22.93;;;;;;;;;;5094609;28;20451;-62
2023/06/20 14:10:17;;;;;;;24.63;22.63;;;;;;;;;;5094678;28;20455;-62
2023/06/20 14:12:44;;;;;;;22.73;20.73;;;;;;;;;;5094589;28;20582;-62
2023/06/20 14:15:12;;;;;;;21.73;19.93;;;;;;;;;;5094575;28;20449;-62
2023/06/20 14:17:39;;;;;;;26.13;23.93;;;;;;;;;;5094599;28;20489;-62
2023/06/20 14:20:08;;;;;;;22.63;20.70;;;;;;;;;;5093457;28;20454;-61
2023/06/20 14:22:35;;;;;;;22.63;20.83;;;;;;;;;;5094393;28;20447;-60